createdAt,value
2023-05-23T00:00:01.626Z,14.6
2023-05-23T00:01:01.222Z,14.5
2023-05-23T00:02:00.866Z,14.5
2023-05-23T00:03:01.490Z,14.5
2023-05-23T00:04:01.198Z,14.5
2023-05-23T00:05:01.653Z,14.5
2023-05-23T00:06:01.241Z,14.5
2023-05-23T00:07:00.838Z,14.5
2023-05-23T00:08:01.440Z,14.5
2023-05-23T00:09:01.038Z,14.4
2023-05-23T00:10:01.650Z,14.4
2023-05-23T00:11:01.283Z,14.3
2023-05-23T00:12:00.863Z,14.4
2023-05-23T00:13:01.464Z,14.5
2023-05-23T00:14:01.126Z,14.4
2023-05-23T00:15:01.634Z,14.4
2023-05-23T00:16:01.238Z,14.4
2023-05-23T00:17:00.899Z,14.4
2023-05-23T00:18:01.437Z,14.4
2023-05-23T00:19:01.108Z,14.5
2023-05-23T00:20:01.666Z,14.4
2023-05-23T00:21:01.373Z,14.4
2023-05-23T00:22:00.848Z,14.4
2023-05-23T00:23:01.433Z,14.4
2023-05-23T00:24:01.016Z,14.4
2023-05-23T00:25:01.610Z,14.4
2023-05-23T00:26:01.195Z,14.4
2023-05-23T00:27:00.780Z,14.4
2023-05-23T00:28:01.357Z,14.4
2023-05-23T00:29:00.966Z,14.4
2023-05-23T00:30:01.559Z,14.4
2023-05-23T00:31:01.222Z,14.4
2023-05-23T00:32:00.718Z,14.4
2023-05-23T00:33:01.337Z,14.3
2023-05-23T00:34:00.961Z,14.3
2023-05-23T00:35:01.547Z,14.3
2023-05-23T00:36:01.215Z,14.3
2023-05-23T00:37:00.879Z,14.3
2023-05-23T00:38:01.327Z,14.3
2023-05-23T00:39:00.922Z,14.3
2023-05-23T00:40:01.510Z,14.3
2023-05-23T00:41:01.116Z,14.3
2023-05-23T00:42:00.672Z,14.4
2023-05-23T00:43:01.252Z,14.3
2023-05-23T00:44:00.839Z,14.3
2023-05-23T00:45:01.426Z,14.3
2023-05-23T00:46:01.077Z,14.2
2023-05-23T00:47:01.911Z,14.3
2023-05-23T00:48:01.519Z,14.3
2023-05-23T00:49:00.900Z,14.3
2023-05-23T00:50:01.402Z,14.2
2023-05-23T00:51:01.002Z,14.2
2023-05-23T00:52:01.604Z,14.2
2023-05-23T00:53:01.324Z,14.2
2023-05-23T00:54:00.778Z,14.1
2023-05-23T00:55:01.351Z,14.2
2023-05-23T00:56:00.937Z,14.2
2023-05-23T00:57:01.539Z,14.2
2023-05-23T00:58:01.151Z,14.1
2023-05-23T00:59:00.704Z,14.2
2023-05-23T01:00:01.281Z,14.1
2023-05-23T01:01:00.940Z,14.2
2023-05-23T01:02:01.586Z,14.1
2023-05-23T01:03:01.251Z,14.1
2023-05-23T01:04:00.795Z,14.1
2023-05-23T01:05:01.334Z,14.2
2023-05-23T01:06:00.914Z,14.2
2023-05-23T01:07:01.508Z,14.2
2023-05-23T01:08:01.099Z,14.2
2023-05-23T01:09:00.802Z,14.1
2023-05-23T01:10:01.264Z,14.1
2023-05-23T01:11:00.844Z,14.2
2023-05-23T01:12:01.444Z,14.1
2023-05-23T01:13:01.030Z,14.2
2023-05-23T01:14:01.611Z,14.2
2023-05-23T01:15:01.192Z,14.2
2023-05-23T01:16:02.692Z,14.2
2023-05-23T01:17:01.331Z,14.2
2023-05-23T01:18:00.960Z,14.2
2023-05-23T01:19:01.519Z,14.2
2023-05-23T01:20:01.168Z,14.1
2023-05-23T01:21:00.729Z,14.2
2023-05-23T01:22:01.277Z,14.2
2023-05-23T01:23:00.964Z,14.2
2023-05-23T01:24:01.453Z,14.2
2023-05-23T01:25:01.161Z,14.2
2023-05-23T01:26:01.607Z,14.2
2023-05-23T01:27:01.238Z,14.2
2023-05-23T01:28:00.842Z,14.2
2023-05-23T01:29:01.409Z,14.2
2023-05-23T01:30:01.011Z,14.2
2023-05-23T01:31:01.585Z,14.2
2023-05-23T01:32:01.265Z,14.2
2023-05-23T01:33:00.769Z,14.2
2023-05-23T01:34:01.342Z,14.2
2023-05-23T01:35:00.944Z,14.2
2023-05-23T01:36:01.504Z,14.2
2023-05-23T01:37:01.104Z,14.2
2023-05-23T01:38:00.683Z,14.2
2023-05-23T01:39:01.258Z,14.2
2023-05-23T01:40:00.857Z,14.2
2023-05-23T01:41:01.564Z,14.2
2023-05-23T01:42:01.091Z,14.3
2023-05-23T01:43:01.661Z,14.2
2023-05-23T01:44:01.257Z,14.2
2023-05-23T01:45:00.855Z,14.2
2023-05-23T01:46:01.484Z,14.2
2023-05-23T01:47:01.080Z,14.2
2023-05-23T01:48:01.672Z,14.2
2023-05-23T01:49:01.271Z,14.2
2023-05-23T01:50:00.945Z,14.2
2023-05-23T01:51:01.449Z,14.2
2023-05-23T01:52:01.048Z,14.2
2023-05-23T01:53:01.620Z,14.2
2023-05-23T01:54:01.210Z,14.2
2023-05-23T01:55:00.787Z,14.3
2023-05-23T01:56:01.385Z,14.3
2023-05-23T01:57:01.097Z,14.2
2023-05-23T01:58:01.558Z,14.2
2023-05-23T01:59:01.155Z,14.2
2023-05-23T02:00:00.727Z,14.3
2023-05-23T02:01:01.360Z,14.3
2023-05-23T02:02:01.009Z,14.3
2023-05-23T02:03:01.626Z,14.2
2023-05-23T02:04:01.200Z,14.3
2023-05-23T02:05:00.769Z,14.3
2023-05-23T02:06:01.351Z,14.2
2023-05-23T02:07:00.938Z,14.3
2023-05-23T02:08:01.532Z,14.3
2023-05-23T02:09:01.124Z,14.2
2023-05-23T02:10:00.691Z,14.3
2023-05-23T02:11:01.276Z,14.3
2023-05-23T02:12:00.869Z,14.3
2023-05-23T02:13:01.578Z,14.3
2023-05-23T02:14:01.111Z,14.2
2023-05-23T02:15:01.694Z,14.3
2023-05-23T02:16:01.296Z,14.3
2023-05-23T02:17:00.917Z,14.3
2023-05-23T02:18:01.475Z,14.3
2023-05-23T02:19:01.113Z,14.3
2023-05-23T02:20:01.661Z,14.2
2023-05-23T02:21:01.238Z,14.3
2023-05-23T02:22:00.881Z,14.3
2023-05-23T02:23:01.451Z,14.3
2023-05-23T02:24:01.049Z,14.3
2023-05-23T02:25:01.611Z,14.3
2023-05-23T02:26:01.225Z,14.3
2023-05-23T02:27:00.811Z,14.3
2023-05-23T02:28:01.384Z,14.3
2023-05-23T02:29:01.093Z,14.3
2023-05-23T02:30:01.547Z,14.3
2023-05-23T02:31:01.185Z,14.3
2023-05-23T02:32:00.711Z,14.3
2023-05-23T02:33:01.340Z,14.3
2023-05-23T02:34:00.947Z,14.2
2023-05-23T02:35:01.509Z,14.3
2023-05-23T02:36:01.111Z,14.2
2023-05-23T02:37:01.665Z,14.3
2023-05-23T02:38:01.299Z,14.3
2023-05-23T02:39:00.884Z,14.3
2023-05-23T02:40:01.470Z,14.3
2023-05-23T02:41:01.083Z,14.3
2023-05-23T02:42:01.653Z,14.3
2023-05-23T02:43:01.257Z,14.3
2023-05-23T02:44:00.840Z,14.2
2023-05-23T02:45:01.546Z,14.2
2023-05-23T02:46:01.143Z,14.3
2023-05-23T02:47:01.684Z,14.3
2023-05-23T02:48:01.356Z,14.3
2023-05-23T02:49:00.893Z,14.3
2023-05-23T02:50:01.549Z,14.3
2023-05-23T02:51:01.168Z,14.3
2023-05-23T02:52:00.696Z,14.3
2023-05-23T02:53:01.271Z,14.2
2023-05-23T02:54:00.874Z,14.2
2023-05-23T02:55:01.434Z,14.2
2023-05-23T02:56:01.042Z,14.2
2023-05-23T02:57:01.589Z,14.2
2023-05-23T02:58:01.188Z,14.2
2023-05-23T02:59:00.768Z,14.3
2023-05-23T03:00:01.323Z,14.3
2023-05-23T03:01:01.060Z,14.2
2023-05-23T03:02:01.549Z,14.2
2023-05-23T03:03:01.212Z,14.3
2023-05-23T03:04:00.796Z,14.3
2023-05-23T03:05:01.305Z,14.3
2023-05-23T03:06:00.906Z,14.2
2023-05-23T03:07:01.497Z,14.2
2023-05-23T03:08:01.092Z,14.2
2023-05-23T03:09:01.669Z,14.2
2023-05-23T03:10:01.262Z,14.2
2023-05-23T03:11:00.856Z,14.2
2023-05-23T03:12:01.446Z,14.2
2023-05-23T03:13:01.043Z,14.2
2023-05-23T03:14:01.607Z,14.2
2023-05-23T03:15:01.203Z,14.2
2023-05-23T03:16:00.779Z,14.2
2023-05-23T03:17:01.473Z,14.2
2023-05-23T03:18:01.020Z,14.2
2023-05-23T03:19:01.615Z,14.2
2023-05-23T03:20:01.259Z,14.2
2023-05-23T03:21:00.801Z,14.1
2023-05-23T03:22:01.372Z,14.2
2023-05-23T03:23:00.972Z,14.2
2023-05-23T03:24:01.532Z,14.1
2023-05-23T03:25:01.136Z,14.1
2023-05-23T03:26:00.690Z,14
2023-05-23T03:27:01.269Z,14.1
2023-05-23T03:28:00.858Z,14
2023-05-23T03:29:01.438Z,14.1
2023-05-23T03:30:01.034Z,14.1
2023-05-23T03:31:01.615Z,14
2023-05-23T03:32:01.210Z,14.1
2023-05-23T03:33:00.963Z,14.1
2023-05-23T03:34:01.348Z,14.1
2023-05-23T03:35:00.956Z,14
2023-05-23T03:36:01.534Z,14.1
2023-05-23T03:37:01.127Z,14
2023-05-23T03:38:00.699Z,14
2023-05-23T03:39:01.284Z,14
2023-05-23T03:40:00.879Z,14
2023-05-23T03:41:01.473Z,13.9
2023-05-23T03:42:01.050Z,13.9
2023-05-23T03:43:01.659Z,13.9
2023-05-23T03:44:01.248Z,14
2023-05-23T03:45:00.846Z,13.9
2023-05-23T03:46:01.489Z,13.9
2023-05-23T03:47:01.081Z,13.9
2023-05-23T03:48:01.653Z,13.9
2023-05-23T03:49:01.439Z,13.8
2023-05-23T03:50:00.870Z,13.9
2023-05-23T03:51:01.554Z,13.9
2023-05-23T03:52:01.122Z,13.8
2023-05-23T03:53:01.690Z,13.9
2023-05-23T03:54:01.268Z,13.8
2023-05-23T03:55:00.852Z,13.9
2023-05-23T03:56:01.431Z,13.9
2023-05-23T03:57:01.040Z,13.8
2023-05-23T03:58:01.630Z,13.8
2023-05-23T03:59:01.237Z,13.9
2023-05-23T04:00:00.824Z,13.8
2023-05-23T04:01:02.072Z,13.8
2023-05-23T04:02:00.833Z,13.9
2023-05-23T04:03:01.492Z,13.8
2023-05-23T04:04:01.129Z,13.8
2023-05-23T04:05:01.815Z,13.8
2023-05-23T04:06:01.405Z,13.7
2023-05-23T04:07:00.910Z,13.7
2023-05-23T04:08:01.562Z,13.7
2023-05-23T04:09:01.172Z,13.6
2023-05-23T04:10:00.729Z,13.5
2023-05-23T04:11:01.308Z,13.5
2023-05-23T04:12:00.900Z,13.5
2023-05-23T04:13:01.501Z,13.5
2023-05-23T04:14:01.138Z,13.5
2023-05-23T04:15:01.690Z,13.5
2023-05-23T04:16:01.310Z,13.5
2023-05-23T04:17:00.894Z,13.6
2023-05-23T04:18:01.485Z,13.6
2023-05-23T04:19:02.448Z,13.6
2023-05-23T04:20:01.686Z,13.6
2023-05-23T04:21:01.435Z,13.6
2023-05-23T04:22:00.914Z,13.6
2023-05-23T04:23:01.540Z,13.6
2023-05-23T04:24:01.162Z,13.7
2023-05-23T04:25:00.724Z,13.7
2023-05-23T04:26:01.297Z,13.7
2023-05-23T04:27:00.963Z,13.7
2023-05-23T04:28:01.534Z,13.7
2023-05-23T04:29:01.169Z,13.7
2023-05-23T04:30:00.706Z,13.7
2023-05-23T04:31:01.312Z,13.7
2023-05-23T04:32:00.946Z,13.7
2023-05-23T04:33:01.537Z,13.7
2023-05-23T04:34:01.188Z,13.7
2023-05-23T04:35:00.745Z,13.7
2023-05-23T04:36:01.321Z,13.7
2023-05-23T04:37:01.026Z,13.8
2023-05-23T04:38:01.476Z,13.7
2023-05-23T04:39:01.086Z,13.7
2023-05-23T04:40:01.646Z,13.7
2023-05-23T04:41:01.290Z,13.7
2023-05-23T04:42:00.882Z,13.7
2023-05-23T04:43:01.439Z,13.7
2023-05-23T04:44:01.017Z,13.8
2023-05-23T04:45:01.598Z,13.8
2023-05-23T04:46:01.184Z,13.8
2023-05-23T04:47:00.804Z,13.8
2023-05-23T04:48:01.419Z,13.8
2023-05-23T04:49:01.018Z,13.8
2023-05-23T04:50:01.583Z,13.8
2023-05-23T04:51:01.170Z,13.8
2023-05-23T04:52:00.828Z,13.8
2023-05-23T04:53:01.462Z,13.8
2023-05-23T04:54:00.978Z,13.8
2023-05-23T04:55:01.555Z,13.9
2023-05-23T04:56:01.205Z,13.8
2023-05-23T04:57:00.783Z,13.8
2023-05-23T04:58:01.382Z,13.9
2023-05-23T04:59:00.964Z,13.9
2023-05-23T05:00:01.539Z,13.9
2023-05-23T05:01:01.145Z,13.8
2023-05-23T05:02:01.693Z,13.9
2023-05-23T05:03:01.321Z,13.9
2023-05-23T05:04:00.961Z,13.9
2023-05-23T05:05:01.517Z,13.8
2023-05-23T05:06:01.096Z,13.8
2023-05-23T05:07:01.670Z,13.9
2023-05-23T05:08:01.277Z,13.9
2023-05-23T05:09:00.987Z,14
2023-05-23T05:10:01.541Z,14
2023-05-23T05:11:01.100Z,14
2023-05-23T05:12:01.699Z,13.9
2023-05-23T05:13:01.389Z,14
2023-05-23T05:14:00.932Z,14
2023-05-23T05:15:01.510Z,14
2023-05-23T05:16:01.130Z,14
2023-05-23T05:17:01.835Z,13.9
2023-05-23T05:18:01.578Z,13.9
2023-05-23T05:19:00.949Z,13.8
2023-05-23T05:20:01.509Z,13.9
2023-05-23T05:21:01.108Z,13.9
2023-05-23T05:22:01.675Z,13.9
2023-05-23T05:23:01.262Z,13.9
2023-05-23T05:24:00.863Z,13.9
2023-05-23T05:25:01.581Z,13.9
2023-05-23T05:26:01.096Z,13.9
2023-05-23T05:27:01.673Z,13.9
2023-05-23T05:28:01.256Z,13.9
2023-05-23T05:29:00.916Z,13.9
2023-05-23T05:30:01.520Z,14
2023-05-23T05:31:01.136Z,13.9
2023-05-23T05:32:01.681Z,13.9
2023-05-23T05:33:01.282Z,14
2023-05-23T05:34:00.886Z,13.9
2023-05-23T05:35:01.500Z,13.9
2023-05-23T05:36:01.089Z,13.9
2023-05-23T05:37:01.653Z,13.9
2023-05-23T05:38:01.232Z,13.9
2023-05-23T05:39:00.825Z,13.9
2023-05-23T05:40:01.416Z,13.7
2023-05-23T05:41:01.068Z,13.8
2023-05-23T05:42:01.632Z,13.7
2023-05-23T05:43:01.225Z,13.8
2023-05-23T05:44:00.806Z,13.7
2023-05-23T05:45:01.421Z,13.7
2023-05-23T05:46:01.012Z,13.7
2023-05-23T05:47:01.575Z,13.6
2023-05-23T05:48:01.211Z,13.6
2023-05-23T05:49:00.760Z,13.7
2023-05-23T05:50:01.348Z,13.6
2023-05-23T05:51:00.949Z,13.6
2023-05-23T05:52:01.600Z,13.6
2023-05-23T05:53:01.175Z,13.7
2023-05-23T05:54:00.753Z,13.7
2023-05-23T05:55:01.358Z,13.8
2023-05-23T05:56:00.940Z,13.8
2023-05-23T05:57:01.647Z,13.8
2023-05-23T05:58:01.174Z,13.8
2023-05-23T05:59:00.748Z,13.8
2023-05-23T06:00:01.363Z,13.8
2023-05-23T06:01:00.965Z,13.7
2023-05-23T06:02:01.554Z,13.7
2023-05-23T06:03:01.160Z,13.7
2023-05-23T06:04:01.048Z,13.8
2023-05-23T06:05:00.827Z,13.8
2023-05-23T06:06:01.414Z,13.8
2023-05-23T06:07:01.554Z,13.7
2023-05-23T06:08:01.136Z,13.7
2023-05-23T06:09:00.705Z,13.7
2023-05-23T06:10:01.287Z,13.7
2023-05-23T06:11:00.872Z,13.8
2023-05-23T06:12:01.460Z,13.8
2023-05-23T06:13:01.177Z,13.7
2023-05-23T06:14:01.659Z,13.7
2023-05-23T06:15:01.267Z,13.7
2023-05-23T06:16:00.884Z,13.7
2023-05-23T06:17:01.425Z,13.8
2023-05-23T06:18:01.100Z,13.7
2023-05-23T06:19:01.652Z,13.7
2023-05-23T06:20:01.255Z,13.7
2023-05-23T06:21:00.893Z,13.7
2023-05-23T06:22:01.458Z,13.7
2023-05-23T06:23:01.058Z,13.6
2023-05-23T06:24:01.615Z,13.6
2023-05-23T06:25:01.198Z,13.6
2023-05-23T06:26:00.790Z,13.6
2023-05-23T06:27:01.365Z,13.6
2023-05-23T06:28:00.963Z,13.6
2023-05-23T06:29:01.684Z,13.6
2023-05-23T06:30:01.180Z,13.6
2023-05-23T06:31:00.757Z,13.6
2023-05-23T06:32:01.354Z,13.6
2023-05-23T06:33:01.008Z,13.6
2023-05-23T06:34:01.570Z,13.7
2023-05-23T06:35:01.157Z,13.6
2023-05-23T06:36:00.742Z,13.6
2023-05-23T06:37:01.329Z,13.6
2023-05-23T06:38:00.928Z,13.7
2023-05-23T06:39:01.488Z,13.7
2023-05-23T06:40:01.095Z,13.7
2023-05-23T06:41:01.643Z,13.7
2023-05-23T06:42:01.257Z,13.7
2023-05-23T06:43:00.851Z,13.6
2023-05-23T06:44:01.461Z,13.7
2023-05-23T06:45:01.207Z,13.6
2023-05-23T06:46:01.739Z,13.6
2023-05-23T06:47:01.390Z,13.7
2023-05-23T06:48:00.927Z,13.7
2023-05-23T06:49:13.560Z,13.6
2023-05-23T06:50:01.027Z,13.7
2023-05-23T06:51:01.638Z,13.6
2023-05-23T06:52:01.252Z,13.6
2023-05-23T06:53:00.909Z,13.6
2023-05-23T06:54:01.404Z,13.5
2023-05-23T06:55:00.992Z,13.6
2023-05-23T06:56:01.571Z,13.6
2023-05-23T06:57:01.180Z,13.6
2023-05-23T06:58:00.734Z,13.6
2023-05-23T06:59:01.307Z,13.6
2023-05-23T07:00:00.892Z,13.6
2023-05-23T07:01:01.616Z,13.6
2023-05-23T07:02:01.133Z,13.6
2023-05-23T07:03:01.747Z,13.6
2023-05-23T07:04:01.366Z,13.6
2023-05-23T07:05:00.950Z,13.6
2023-05-23T07:06:01.584Z,13.6
2023-05-23T07:07:01.159Z,13.6
2023-05-23T07:08:01.719Z,13.7
2023-05-23T07:09:01.312Z,13.7
2023-05-23T07:10:00.922Z,13.7
2023-05-23T07:11:01.498Z,13.6
2023-05-23T07:12:01.109Z,13.7
2023-05-23T07:13:01.674Z,13.7
2023-05-23T07:14:01.255Z,13.7
2023-05-23T07:15:00.835Z,13.8
2023-05-23T07:16:01.418Z,13.8
2023-05-23T07:17:01.160Z,13.9
2023-05-23T07:18:01.624Z,13.9
2023-05-23T07:19:01.263Z,13.8
2023-05-23T07:20:00.827Z,13.9
2023-05-23T07:21:01.416Z,13.9
2023-05-23T07:22:01.012Z,13.9
2023-05-23T07:23:01.580Z,14
2023-05-23T07:24:01.156Z,14
2023-05-23T07:25:00.742Z,14
2023-05-23T07:26:03.068Z,14.1
2023-05-23T07:27:00.867Z,14
2023-05-23T07:28:01.461Z,14
2023-05-23T07:29:01.040Z,13.9
2023-05-23T07:30:01.628Z,14
2023-05-23T07:31:01.236Z,13.9
2023-05-23T07:32:00.796Z,13.9
2023-05-23T07:33:01.419Z,13.9
2023-05-23T07:34:01.029Z,14
2023-05-23T07:35:01.600Z,14
2023-05-23T07:36:01.191Z,14
2023-05-23T07:37:00.767Z,14.1
2023-05-23T07:38:01.372Z,14.1
2023-05-23T07:39:01.029Z,14
2023-05-23T07:40:01.584Z,14
2023-05-23T07:41:10.466Z,14
2023-05-23T07:42:01.712Z,14
2023-05-23T07:43:01.314Z,14
2023-05-23T07:44:00.938Z,14
2023-05-23T07:45:01.517Z,13.9
2023-05-23T07:46:01.119Z,13.8
2023-05-23T07:47:01.711Z,13.9
2023-05-23T07:48:01.322Z,13.8
2023-05-23T07:49:00.949Z,13.9
2023-05-23T07:50:01.519Z,13.9
2023-05-23T07:51:01.204Z,14
2023-05-23T07:52:01.692Z,14.1
2023-05-23T07:53:01.294Z,14.2
2023-05-23T07:54:00.956Z,14.1
2023-05-23T07:55:01.485Z,14.1
2023-05-23T07:56:01.071Z,14
2023-05-23T07:57:01.678Z,14.1
2023-05-23T07:58:01.263Z,14.1
2023-05-23T07:59:00.848Z,14
2023-05-23T08:00:01.428Z,14
2023-05-23T08:01:01.009Z,13.9
2023-05-23T08:02:01.639Z,13.8
2023-05-23T08:03:01.294Z,13.8
2023-05-23T08:04:00.857Z,13.7
2023-05-23T08:05:01.436Z,13.7
2023-05-23T08:06:01.034Z,13.7
2023-05-23T08:07:05.331Z,13.8
2023-05-23T08:08:01.163Z,13.8
2023-05-23T08:09:00.748Z,13.7
2023-05-23T08:10:01.345Z,13.7
2023-05-23T08:11:00.957Z,13.6
2023-05-23T08:12:01.552Z,13.7
2023-05-23T08:13:01.207Z,13.7
2023-05-23T08:14:01.406Z,13.8
2023-05-23T08:15:01.208Z,13.8
2023-05-23T08:16:00.819Z,13.8
2023-05-23T08:17:01.465Z,14
2023-05-23T08:18:01.145Z,14.1
2023-05-23T08:19:01.754Z,14.2
2023-05-23T08:20:01.312Z,14.3
2023-05-23T08:21:00.890Z,14.3
2023-05-23T08:22:01.448Z,14.2
2023-05-23T08:23:01.039Z,14.3
2023-05-23T08:24:01.607Z,14.2
2023-05-23T08:25:01.208Z,14.2
2023-05-23T08:26:00.764Z,14.1
2023-05-23T08:27:01.352Z,13.9
2023-05-23T08:28:00.938Z,13.9
2023-05-23T08:29:01.526Z,13.8
2023-05-23T08:30:01.137Z,13.7
2023-05-23T08:31:01.692Z,13.8
2023-05-23T08:32:01.306Z,13.8
2023-05-23T08:33:00.939Z,13.9
2023-05-23T08:34:01.488Z,13.9
2023-05-23T08:35:01.109Z,13.9
2023-05-23T08:36:01.702Z,13.7
2023-05-23T08:37:01.327Z,13.7
2023-05-23T08:38:00.909Z,13.5
2023-05-23T08:39:01.496Z,13.5
2023-05-23T08:40:01.090Z,13.5
2023-05-23T08:41:01.688Z,13.6
2023-05-23T08:42:01.281Z,13.6
2023-05-23T08:43:00.932Z,13.6
2023-05-23T08:44:01.453Z,13.7
2023-05-23T08:45:01.040Z,13.6
2023-05-23T08:46:01.657Z,13.6
2023-05-23T08:47:01.256Z,13.5
2023-05-23T08:48:00.903Z,13.6
2023-05-23T08:49:01.419Z,13.6
2023-05-23T08:50:01.001Z,13.6
2023-05-23T08:51:01.581Z,13.5
2023-05-23T08:52:01.198Z,13.4
2023-05-23T08:53:00.767Z,13.3
2023-05-23T08:54:01.379Z,13.3
2023-05-23T08:55:00.979Z,13.2
2023-05-23T08:56:01.547Z,13.1
2023-05-23T08:57:01.141Z,13.1
2023-05-23T08:58:01.733Z,13.1
2023-05-23T08:59:01.329Z,13.1
2023-05-23T09:00:00.935Z,13.1
2023-05-23T09:01:01.501Z,13.1
2023-05-23T09:02:01.100Z,13.2
2023-05-23T09:03:01.697Z,13.2
2023-05-23T09:04:01.336Z,13.1
2023-05-23T09:05:00.919Z,13.1
2023-05-23T09:06:01.567Z,13.1
2023-05-23T09:07:01.145Z,13
2023-05-23T09:08:01.738Z,13
2023-05-23T09:09:01.343Z,12.9
2023-05-23T09:10:00.937Z,13.1
2023-05-23T09:11:01.517Z,13.1
2023-05-23T09:12:01.109Z,13.1
2023-05-23T09:13:01.707Z,13.1
2023-05-23T09:14:01.299Z,13.2
2023-05-23T09:15:00.879Z,13.2
2023-05-23T09:16:01.483Z,13.3
2023-05-23T09:17:03.275Z,13.3
2023-05-23T09:18:01.681Z,13.3
2023-05-23T09:19:01.365Z,13.3
2023-05-23T09:20:00.915Z,13.3
2023-05-23T09:21:01.485Z,13.2
2023-05-23T09:22:01.085Z,13.2
2023-05-23T09:23:03.645Z,13.2
2023-05-23T09:24:01.182Z,13.2
2023-05-23T09:25:00.790Z,13.2
2023-05-23T09:26:01.347Z,13.2
2023-05-23T09:27:00.945Z,13
2023-05-23T09:28:01.523Z,13
2023-05-23T09:29:01.134Z,12.9
2023-05-23T09:30:01.700Z,12.9
2023-05-23T09:31:01.305Z,12.8
2023-05-23T09:32:00.914Z,12.7
2023-05-23T09:33:04.029Z,12.7
2023-05-23T09:34:01.009Z,12.7
2023-05-23T09:35:01.595Z,12.7
2023-05-23T09:36:01.176Z,12.7
2023-05-23T09:37:00.765Z,12.8
2023-05-23T09:38:01.336Z,12.7
2023-05-23T09:39:02.737Z,12.9
2023-05-23T09:40:01.589Z,13.1
2023-05-23T09:41:01.178Z,13.2
2023-05-23T09:42:01.740Z,13.3
2023-05-23T09:43:01.332Z,13.3
2023-05-23T09:44:00.914Z,13.2
2023-05-23T09:45:03.960Z,13.2
2023-05-23T09:46:01.066Z,13.2
2023-05-23T09:47:01.699Z,13.2
2023-05-23T09:48:01.357Z,13.2
2023-05-23T09:49:00.881Z,13.3
2023-05-23T09:50:01.454Z,13.3
2023-05-23T09:51:02.936Z,13.3
2023-05-23T09:52:01.594Z,13.2
2023-05-23T09:53:01.204Z,13.2
2023-05-23T09:54:00.769Z,13.3
2023-05-23T09:55:01.394Z,13.2
2023-05-23T09:56:00.977Z,13.2
2023-05-23T09:57:01.940Z,13.3
2023-05-23T09:58:01.222Z,13.3
2023-05-23T09:59:00.815Z,13.4
2023-05-23T10:00:01.385Z,13.3
2023-05-23T10:01:01.034Z,13.2
2023-05-23T10:02:01.613Z,13.2
2023-05-23T10:03:01.224Z,13.2
2023-05-23T10:04:00.824Z,13.3
2023-05-23T10:05:01.370Z,13.1
2023-05-23T10:06:00.965Z,13
2023-05-23T10:07:01.536Z,13
2023-05-23T10:08:01.128Z,12.9
2023-05-23T10:09:01.718Z,12.8
2023-05-23T10:10:01.344Z,12.9
2023-05-23T10:11:00.938Z,12.8
2023-05-23T10:12:01.525Z,12.7
2023-05-23T10:13:01.158Z,12.6
2023-05-23T10:14:01.707Z,12.5
2023-05-23T10:15:01.318Z,12.4
2023-05-23T10:16:00.924Z,12.6
2023-05-23T10:17:01.516Z,12.6
2023-05-23T10:18:01.198Z,12.7
2023-05-23T10:19:01.739Z,12.7
2023-05-23T10:20:01.371Z,12.8
2023-05-23T10:21:00.972Z,12.8
2023-05-23T10:22:01.533Z,12.9
2023-05-23T10:23:01.143Z,12.9
2023-05-23T10:24:01.712Z,12.9
2023-05-23T10:25:01.297Z,12.8
2023-05-23T10:26:00.904Z,12.8
2023-05-23T10:27:01.466Z,12.8
2023-05-23T10:28:03.370Z,12.8
2023-05-23T10:29:01.626Z,13
2023-05-23T10:30:01.227Z,13
2023-05-23T10:31:00.825Z,13.2
2023-05-23T10:32:01.380Z,13.2
2023-05-23T10:33:00.975Z,13.2
2023-05-23T10:34:01.543Z,13.2
2023-05-23T10:35:01.140Z,13.1
2023-05-23T10:36:01.772Z,13
2023-05-23T10:37:01.419Z,13
2023-05-23T10:38:00.961Z,13.1
2023-05-23T10:39:01.537Z,13.3
2023-05-23T10:40:01.130Z,13.5
2023-05-23T10:41:01.713Z,13.8
2023-05-23T10:42:01.324Z,14
2023-05-23T10:43:00.916Z,14.1
2023-05-23T10:44:01.515Z,14.2
2023-05-23T10:45:01.489Z,14.3
2023-05-23T10:46:00.874Z,14.5
2023-05-23T10:47:01.490Z,14.7
2023-05-23T10:48:00.999Z,14.9
2023-05-23T10:49:01.581Z,15.2
2023-05-23T10:50:01.195Z,15
2023-05-23T10:51:00.750Z,15
2023-05-23T10:52:01.337Z,14.8
2023-05-23T10:53:00.941Z,14.8
2023-05-23T10:54:01.535Z,14.8
2023-05-23T10:55:01.153Z,14.7
2023-05-23T10:56:00.762Z,14.7
2023-05-23T10:57:01.289Z,14.3
2023-05-23T10:58:00.874Z,14.2
2023-05-23T10:59:01.459Z,14.2
2023-05-23T11:00:01.055Z,14.3
2023-05-23T11:01:01.654Z,14.3
2023-05-23T11:02:01.297Z,14.4
2023-05-23T11:03:00.970Z,14.5
2023-05-23T11:04:01.450Z,14.6
2023-05-23T11:05:01.094Z,14.6
2023-05-23T11:06:01.646Z,14.8
2023-05-23T11:07:01.225Z,14.8
2023-05-23T11:08:00.829Z,14.9
2023-05-23T11:09:01.405Z,14.7
2023-05-23T11:10:00.996Z,14.7
2023-05-23T11:11:01.579Z,14.4
2023-05-23T11:12:01.177Z,14.3
2023-05-23T11:13:00.766Z,14.2
2023-05-23T11:14:01.351Z,14.2
2023-05-23T11:15:00.931Z,14.3
2023-05-23T11:16:01.532Z,14.4
2023-05-23T11:17:01.151Z,14.3
2023-05-23T11:18:01.758Z,14.2
2023-05-23T11:19:01.357Z,14.2
2023-05-23T11:20:00.969Z,14.3
2023-05-23T11:21:01.534Z,14.4
2023-05-23T11:22:01.120Z,14.4
2023-05-23T11:23:01.724Z,14.6
2023-05-23T11:24:01.330Z,14.7
2023-05-23T11:25:00.941Z,14.7
2023-05-23T11:26:01.519Z,14.5
2023-05-23T11:27:01.118Z,14.4
2023-05-23T11:28:01.705Z,14.4
2023-05-23T11:29:01.639Z,14.4
2023-05-23T11:30:00.935Z,14.5
2023-05-23T11:31:01.516Z,14.5
2023-05-23T11:32:01.128Z,14.5
2023-05-23T11:33:01.937Z,14.8
2023-05-23T11:34:01.986Z,14.8
2023-05-23T11:35:01.590Z,14.8
2023-05-23T11:36:01.201Z,14.7
2023-05-23T11:37:00.804Z,14.6
2023-05-23T11:38:01.379Z,14.5
2023-05-23T11:39:00.964Z,14.4
2023-05-23T11:40:01.568Z,14.4
2023-05-23T11:41:01.199Z,14.3
2023-05-23T11:42:01.766Z,14.3
2023-05-23T11:43:01.378Z,14.1
2023-05-23T11:44:00.990Z,14
2023-05-23T11:45:01.599Z,14
2023-05-23T11:46:01.209Z,14.1
2023-05-23T11:47:01.890Z,14.2
2023-05-23T11:48:01.531Z,14.5
2023-05-23T11:49:01.049Z,14.6
2023-05-23T11:50:01.620Z,14.7
2023-05-23T11:51:01.220Z,14.8
2023-05-23T11:52:00.795Z,14.9
2023-05-23T11:53:01.380Z,15.2
2023-05-23T11:54:00.972Z,15.3
2023-05-23T11:55:03.785Z,15.5
2023-05-23T11:56:01.151Z,15.7
2023-05-23T11:57:01.743Z,15.8
2023-05-23T11:58:01.326Z,15.7
2023-05-23T11:59:00.910Z,15.6
2023-05-23T12:00:01.516Z,15.5
2023-05-23T12:01:01.164Z,15.5
2023-05-23T12:02:01.744Z,15.7
2023-05-23T12:03:01.404Z,15.8
2023-05-23T12:04:01.064Z,15.8
2023-05-23T12:05:01.686Z,16
2023-05-23T12:06:01.229Z,15.9
2023-05-23T12:07:00.798Z,16.2
2023-05-23T12:08:01.372Z,16.1
2023-05-23T12:09:00.957Z,15.8
2023-05-23T12:10:01.534Z,15.8
2023-05-23T12:11:01.138Z,15.9
2023-05-23T12:12:01.702Z,16.1
2023-05-23T12:13:01.292Z,16.3
2023-05-23T12:14:00.945Z,16.1
2023-05-23T12:15:01.530Z,15.8
2023-05-23T12:16:01.236Z,15.8
2023-05-23T12:17:00.770Z,15.6
2023-05-23T12:18:01.608Z,15.7
2023-05-23T12:19:01.584Z,15.9
2023-05-23T12:20:01.242Z,16
2023-05-23T12:21:01.314Z,16
2023-05-23T12:22:00.855Z,15.8
2023-05-23T12:23:01.412Z,15.6
2023-05-23T12:24:01.018Z,15.7
2023-05-23T12:25:01.592Z,15.6
2023-05-23T12:26:01.187Z,15.4
2023-05-23T12:27:01.779Z,15.6
2023-05-23T12:28:01.399Z,15.7
2023-05-23T12:29:01.000Z,15.7
2023-05-23T12:30:01.625Z,15.6
2023-05-23T12:31:01.249Z,15.5
2023-05-23T12:32:00.851Z,15.4
2023-05-23T12:33:01.451Z,15.6
2023-05-23T12:34:01.068Z,15.7
2023-05-23T12:35:01.653Z,15.9
2023-05-23T12:36:01.264Z,15.9
2023-05-23T12:37:10.907Z,16
2023-05-23T12:38:01.366Z,16.2
2023-05-23T12:39:00.973Z,16.1
2023-05-23T12:40:01.575Z,16.1
2023-05-23T12:41:01.172Z,16.3
2023-05-23T12:42:01.756Z,16.5
2023-05-23T12:43:01.357Z,16.8
2023-05-23T12:44:00.962Z,17.3
2023-05-23T12:45:01.529Z,17.3
2023-05-23T12:46:01.108Z,17.3
2023-05-23T12:47:01.725Z,17.5
2023-05-23T12:48:01.466Z,17.2
2023-05-23T12:49:00.962Z,16.8
2023-05-23T12:50:01.517Z,16.7
2023-05-23T12:51:01.108Z,16.9
2023-05-23T12:52:01.697Z,17.1
2023-05-23T12:53:01.313Z,17.5
2023-05-23T12:54:00.907Z,17.6
2023-05-23T12:55:01.478Z,17.8
2023-05-23T12:56:01.105Z,17.7
2023-05-23T12:57:01.693Z,17.3
2023-05-23T12:58:01.275Z,17.3
2023-05-23T12:59:00.871Z,17
2023-05-23T13:00:01.438Z,16.8
2023-05-23T13:01:01.047Z,17
2023-05-23T13:02:01.604Z,17
2023-05-23T13:03:01.220Z,17.1
2023-05-23T13:04:00.820Z,17.3
2023-05-23T13:05:01.394Z,17.4
2023-05-23T13:06:00.997Z,16.9
2023-05-23T13:07:01.563Z,16.7
2023-05-23T13:08:01.146Z,16.7
2023-05-23T13:09:01.755Z,16.8
2023-05-23T13:10:01.344Z,16.7
2023-05-23T13:11:00.952Z,17.1
2023-05-23T13:12:01.515Z,17.3
2023-05-23T13:13:01.101Z,17.4
2023-05-23T13:14:01.696Z,17.3
2023-05-23T13:15:01.335Z,17.3
2023-05-23T13:16:00.905Z,17.2
2023-05-23T13:17:01.513Z,17
2023-05-23T13:18:02.047Z,17
2023-05-23T13:19:00.897Z,17
2023-05-23T13:20:01.306Z,17
2023-05-23T13:21:00.887Z,17.1
2023-05-23T13:22:01.477Z,17.5